Pagina principale
METAR-TAF:

METAR-TAF

Aeroporti :

Paganella, Italia

latitudine: 46-09N, longitudine: 011-02E, altezza: 2125 m

Osservazione

Il bollettino è stato emesso 51 minuti fa, alle 07:55 UTC
Vento calmo
Temperature 14°C
Umidità 82%
Pressione 1028 hPa
Visibilità 10 km o più
Nubi sparse
Nubi sparse ad un'altezza di 1000 ft

METAR: LIVP 180755Z 00000KT 9999 SCT/// SCT010 14/11 Q1028 RMK BKN MON CLD SCT VAL CLD SCT VIS MIN 9999

Ora: 10:46 (08:46 UTC)


TAF: mancante

Osservazioni e previsioni meteorologiche di più di 4000 aeroporti (messaggi METAR e TAF).

Le stazioni disponibili sono rappresentate dai dischi gialli e rossi sulla carta.

Puntare il mouse per vedere il nome della stazione.

Clicca sopra per visualizzare le osservazioni e previsioni meteorologiche.

Per cambiare la mappa : fare clic sui pulsanti verdi con una croce nera per ingrandire, il pulsante verde con un trattino per diminuire, o sulla freccia verde per le mappe adiacenti.


METAR-TAF: